sensor_id;sensor_type;location;lat;lon;timestamp;pressure;altitude;pressure_sealevel;temperature
24639;BMP180;1641;51.306;12.384;2024-03-25T00:00:17;98659.00;;;6.60
24639;BMP180;1641;51.306;12.384;2024-03-25T00:02:43;98628.00;;;6.80
24639;BMP180;1641;51.306;12.384;2024-03-25T00:05:09;98633.00;;;6.70
24639;BMP180;1641;51.306;12.384;2024-03-25T00:07:43;98675.00;;;6.90
24639;BMP180;1641;51.306;12.384;2024-03-25T00:10:12;98621.00;;;6.80
24639;BMP180;1641;51.306;12.384;2024-03-25T00:12:43;98668.00;;;7.10
24639;BMP180;1641;51.306;12.384;2024-03-25T00:15:09;98641.00;;;7.20
24639;BMP180;1641;51.306;12.384;2024-03-25T00:17:37;98675.00;;;7.50
24639;BMP180;1641;51.306;12.384;2024-03-25T00:20:09;98610.00;;;7.10
24639;BMP180;1641;51.306;12.384;2024-03-25T00:22:34;98622.00;;;7.10
24639;BMP180;1641;51.306;12.384;2024-03-25T00:25:00;98680.00;;;6.70
24639;BMP180;1641;51.306;12.384;2024-03-25T00:27:25;98617.00;;;6.60
24639;BMP180;1641;51.306;12.384;2024-03-25T00:29:54;98689.00;;;6.70
24639;BMP180;1641;51.306;12.384;2024-03-25T00:32:22;98684.00;;;7.00
24639;BMP180;1641;51.306;12.384;2024-03-25T00:34:47;98614.00;;;6.50
24639;BMP180;1641;51.306;12.384;2024-03-25T00:37:15;98645.00;;;6.30
24639;BMP180;1641;51.306;12.384;2024-03-25T00:39:44;98687.00;;;6.60
24639;BMP180;1641;51.306;12.384;2024-03-25T00:42:09;98652.00;;;6.60
24639;BMP180;1641;51.306;12.384;2024-03-25T00:44:35;98678.00;;;6.50
24639;BMP180;1641;51.306;12.384;2024-03-25T00:47:00;98682.00;;;6.60
24639;BMP180;1641;51.306;12.384;2024-03-25T00:49:26;98636.00;;;6.60
24639;BMP180;1641;51.306;12.384;2024-03-25T00:51:57;98686.00;;;6.70
24639;BMP180;1641;51.306;12.384;2024-03-25T00:54:22;98682.00;;;6.80
24639;BMP180;1641;51.306;12.384;2024-03-25T00:57:00;98670.00;;;6.60
24639;BMP180;1641;51.306;12.384;2024-03-25T00:59:26;98690.00;;;7.20
24639;BMP180;1641;51.306;12.384;2024-03-25T01:01:51;98687.00;;;6.80
24639;BMP180;1641;51.306;12.384;2024-03-25T01:04:16;98692.00;;;6.90
24639;BMP180;1641;51.306;12.384;2024-03-25T01:06:44;98659.00;;;7.00
24639;BMP180;1641;51.306;12.384;2024-03-25T01:09:10;98693.00;;;6.80
24639;BMP180;1641;51.306;12.384;2024-03-25T01:11:38;98627.00;;;7.10
24639;BMP180;1641;51.306;12.384;2024-03-25T01:14:31;98697.00;;;6.80
24639;BMP180;1641;51.306;12.384;2024-03-25T01:16:57;98641.00;;;7.10
24639;BMP180;1641;51.306;12.384;2024-03-25T01:19:22;98703.00;;;7.00
24639;BMP180;1641;51.306;12.384;2024-03-25T01:21:54;98681.00;;;7.00
24639;BMP180;1641;51.306;12.384;2024-03-25T01:24:22;98686.00;;;7.10
24639;BMP180;1641;51.306;12.384;2024-03-25T01:26:47;98663.00;;;7.50
24639;BMP180;1641;51.306;12.384;2024-03-25T01:29:15;98710.00;;;7.20
24639;BMP180;1641;51.306;12.384;2024-03-25T01:31:40;98706.00;;;6.90
24639;BMP180;1641;51.306;12.384;2024-03-25T01:34:06;98716.00;;;6.80
24639;BMP180;1641;51.306;12.384;2024-03-25T01:36:34;98664.00;;;6.60
24639;BMP180;1641;51.306;12.384;2024-03-25T01:39:03;98712.00;;;6.70
24639;BMP180;1641;51.306;12.384;2024-03-25T01:41:30;98717.00;;;6.80
24639;BMP180;1641;51.306;12.384;2024-03-25T01:43:55;98686.00;;;7.10
24639;BMP180;1641;51.306;12.384;2024-03-25T01:46:21;98705.00;;;7.00
24639;BMP180;1641;51.306;12.384;2024-03-25T01:48:47;98677.00;;;6.70
24639;BMP180;1641;51.306;12.384;2024-03-25T01:51:17;98729.00;;;6.80
24639;BMP180;1641;51.306;12.384;2024-03-25T01:53:54;98687.00;;;6.90
24639;BMP180;1641;51.306;12.384;2024-03-25T01:56:20;98728.00;;;7.00
24639;BMP180;1641;51.306;12.384;2024-03-25T01:58:47;98654.00;;;7.30
24639;BMP180;1641;51.306;12.384;2024-03-25T02:01:16;98695.00;;;7.30
24639;BMP180;1641;51.306;12.384;2024-03-25T02:03:45;98683.00;;;7.20
24639;BMP180;1641;51.306;12.384;2024-03-25T02:06:15;98740.00;;;6.80
24639;BMP180;1641;51.306;12.384;2024-03-25T02:08:44;98679.00;;;7.00
24639;BMP180;1641;51.306;12.384;2024-03-25T02:11:10;98688.00;;;6.70
24639;BMP180;1641;51.306;12.384;2024-03-25T02:13:38;98674.00;;;6.70
24639;BMP180;1641;51.306;12.384;2024-03-25T02:16:07;98711.00;;;6.70
24639;BMP180;1641;51.306;12.384;2024-03-25T02:18:33;98742.00;;;7.00
24639;BMP180;1641;51.306;12.384;2024-03-25T02:21:01;98756.00;;;6.70
24639;BMP180;1641;51.306;12.384;2024-03-25T02:23:29;98734.00;;;7.20
24639;BMP180;1641;51.306;12.384;2024-03-25T02:25:55;98730.00;;;6.80
24639;BMP180;1641;51.306;12.384;2024-03-25T02:28:23;98756.00;;;6.90
24639;BMP180;1641;51.306;12.384;2024-03-25T02:30:49;98715.00;;;6.60
24639;BMP180;1641;51.306;12.384;2024-03-25T02:33:17;98730.00;;;6.70
24639;BMP180;1641;51.306;12.384;2024-03-25T02:35:45;98765.00;;;6.80
24639;BMP180;1641;51.306;12.384;2024-03-25T02:38:10;98778.00;;;6.90
24639;BMP180;1641;51.306;12.384;2024-03-25T02:40:39;98772.00;;;7.00
24639;BMP180;1641;51.306;12.384;2024-03-25T02:43:11;98772.00;;;7.00
24639;BMP180;1641;51.306;12.384;2024-03-25T02:45:37;98740.00;;;7.20
24639;BMP180;1641;51.306;12.384;2024-03-25T02:48:02;98775.00;;;7.30
24639;BMP180;1641;51.306;12.384;2024-03-25T02:50:34;98775.00;;;7.20
24639;BMP180;1641;51.306;12.384;2024-03-25T02:52:59;98782.00;;;7.00
24639;BMP180;1641;51.306;12.384;2024-03-25T02:55:24;98791.00;;;6.90
24639;BMP180;1641;51.306;12.384;2024-03-25T02:57:52;98794.00;;;6.80
24639;BMP180;1641;51.306;12.384;2024-03-25T03:00:21;98794.00;;;7.00
24639;BMP180;1641;51.306;12.384;2024-03-25T03:02:46;98738.00;;;7.10
24639;BMP180;1641;51.306;12.384;2024-03-25T03:05:15;98740.00;;;6.80
24639;BMP180;1641;51.306;12.384;2024-03-25T03:07:41;98807.00;;;6.70
24639;BMP180;1641;51.306;12.384;2024-03-25T03:10:06;98818.00;;;6.60
24639;BMP180;1641;51.306;12.384;2024-03-25T03:12:32;98826.00;;;7.00
24639;BMP180;1641;51.306;12.384;2024-03-25T03:15:00;98780.00;;;7.10
24639;BMP180;1641;51.306;12.384;2024-03-25T03:17:28;98812.00;;;7.00
24639;BMP180;1641;51.306;12.384;2024-03-25T03:19:53;98835.00;;;6.90
24639;BMP180;1641;51.306;12.384;2024-03-25T03:22:25;98827.00;;;7.00
24639;BMP180;1641;51.306;12.384;2024-03-25T03:24:50;98824.00;;;6.80
24639;BMP180;1641;51.306;12.384;2024-03-25T03:27:15;98779.00;;;6.90
24639;BMP180;1641;51.306;12.384;2024-03-25T03:29:41;98847.00;;;6.90
24639;BMP180;1641;51.306;12.384;2024-03-25T03:32:09;98841.00;;;7.00
24639;BMP180;1641;51.306;12.384;2024-03-25T03:34:38;98774.00;;;7.00
24639;BMP180;1641;51.306;12.384;2024-03-25T03:37:03;98849.00;;;6.90
24639;BMP180;1641;51.306;12.384;2024-03-25T03:39:28;98847.00;;;6.50
24639;BMP180;1641;51.306;12.384;2024-03-25T03:41:53;98848.00;;;6.60
24639;BMP180;1641;51.306;12.384;2024-03-25T03:44:19;98858.00;;;6.50
24639;BMP180;1641;51.306;12.384;2024-03-25T03:46:44;98856.00;;;6.60
24639;BMP180;1641;51.306;12.384;2024-03-25T03:49:09;98874.00;;;6.80
24639;BMP180;1641;51.306;12.384;2024-03-25T03:51:34;98856.00;;;6.80
24639;BMP180;1641;51.306;12.384;2024-03-25T03:54:00;98862.00;;;6.70
24639;BMP180;1641;51.306;12.384;2024-03-25T03:56:25;98865.00;;;6.70
24639;BMP180;1641;51.306;12.384;2024-03-25T03:58:50;98868.00;;;7.00
24639;BMP180;1641;51.306;12.384;2024-03-25T04:01:16;98875.00;;;6.80
24639;BMP180;1641;51.306;12.384;2024-03-25T04:03:42;98867.00;;;6.80
24639;BMP180;1641;51.306;12.384;2024-03-25T04:06:11;98891.00;;;6.70
24639;BMP180;1641;51.306;12.384;2024-03-25T04:08:40;98877.00;;;6.80
24639;BMP180;1641;51.306;12.384;2024-03-25T04:11:08;98901.00;;;7.20
24639;BMP180;1641;51.306;12.384;2024-03-25T04:13:35;98904.00;;;7.20
24639;BMP180;1641;51.306;12.384;2024-03-25T04:16:02;98896.00;;;6.90
24639;BMP180;1641;51.306;12.384;2024-03-25T04:18:28;98903.00;;;6.60
24639;BMP180;1641;51.306;12.384;2024-03-25T04:20:56;98845.00;;;6.40
24639;BMP180;1641;51.306;12.384;2024-03-25T04:23:21;98904.00;;;6.40
24639;BMP180;1641;51.306;12.384;2024-03-25T04:25:50;98912.00;;;6.40
24639;BMP180;1641;51.306;12.384;2024-03-25T04:28:16;98901.00;;;6.30
24639;BMP180;1641;51.306;12.384;2024-03-25T04:30:41;98916.00;;;6.50
24639;BMP180;1641;51.306;12.384;2024-03-25T04:33:07;98915.00;;;6.90
24639;BMP180;1641;51.306;12.384;2024-03-25T04:35:33;98916.00;;;6.60
24639;BMP180;1641;51.306;12.384;2024-03-25T04:37:58;98906.00;;;6.50
24639;BMP180;1641;51.306;12.384;2024-03-25T04:40:26;98926.00;;;6.50
24639;BMP180;1641;51.306;12.384;2024-03-25T04:42:51;98926.00;;;6.50
24639;BMP180;1641;51.306;12.384;2024-03-25T04:45:17;98905.00;;;6.40
24639;BMP180;1641;51.306;12.384;2024-03-25T04:47:42;98939.00;;;6.10
24639;BMP180;1641;51.306;12.384;2024-03-25T04:50:07;98929.00;;;6.10
24639;BMP180;1641;51.306;12.384;2024-03-25T04:52:33;98904.00;;;6.40
24639;BMP180;1641;51.306;12.384;2024-03-25T04:54:58;98933.00;;;6.60
24639;BMP180;1641;51.306;12.384;2024-03-25T04:57:24;98939.00;;;6.60
24639;BMP180;1641;51.306;12.384;2024-03-25T04:59:49;98950.00;;;6.80
24639;BMP180;1641;51.306;12.384;2024-03-25T05:02:14;98927.00;;;6.70
24639;BMP180;1641;51.306;12.384;2024-03-25T05:04:43;98949.00;;;6.90
24639;BMP180;1641;51.306;12.384;2024-03-25T05:07:08;98960.00;;;6.50
24639;BMP180;1641;51.306;12.384;2024-03-25T05:09:33;98954.00;;;6.50
24639;BMP180;1641;51.306;12.384;2024-03-25T05:11:59;98937.00;;;6.50
24639;BMP180;1641;51.306;12.384;2024-03-25T05:14:24;98956.00;;;6.40
24639;BMP180;1641;51.306;12.384;2024-03-25T05:16:50;98928.00;;;6.40
24639;BMP180;1641;51.306;12.384;2024-03-25T05:19:17;98968.00;;;6.60
24639;BMP180;1641;51.306;12.384;2024-03-25T05:21:42;98965.00;;;6.60
24639;BMP180;1641;51.306;12.384;2024-03-25T05:24:08;98962.00;;;6.20
24639;BMP180;1641;51.306;12.384;2024-03-25T05:26:33;98966.00;;;6.30
24639;BMP180;1641;51.306;12.384;2024-03-25T05:29:04;98973.00;;;6.60
24639;BMP180;1641;51.306;12.384;2024-03-25T05:31:29;98981.00;;;6.50
24639;BMP180;1641;51.306;12.384;2024-03-25T05:33:58;98981.00;;;6.50
24639;BMP180;1641;51.306;12.384;2024-03-25T05:36:26;98988.00;;;7.10
24639;BMP180;1641;51.306;12.384;2024-03-25T05:38:52;98998.00;;;7.10
24639;BMP180;1641;51.306;12.384;2024-03-25T05:41:17;98969.00;;;7.20
24639;BMP180;1641;51.306;12.384;2024-03-25T05:43:45;98983.00;;;7.00
24639;BMP180;1641;51.306;12.384;2024-03-25T05:46:11;98983.00;;;6.70
24639;BMP180;1641;51.306;12.384;2024-03-25T05:48:36;98989.00;;;6.50
24639;BMP180;1641;51.306;12.384;2024-03-25T05:51:05;99005.00;;;6.80
24639;BMP180;1641;51.306;12.384;2024-03-25T05:53:31;99004.00;;;7.10
24639;BMP180;1641;51.306;12.384;2024-03-25T05:55:57;99006.00;;;7.10
24639;BMP180;1641;51.306;12.384;2024-03-25T05:58:24;99004.00;;;7.40
24639;BMP180;1641;51.306;12.384;2024-03-25T06:00:49;99008.00;;;7.30
24639;BMP180;1641;51.306;12.384;2024-03-25T06:03:15;99015.00;;;7.50
24639;BMP180;1641;51.306;12.384;2024-03-25T06:05:48;99019.00;;;7.50
24639;BMP180;1641;51.306;12.384;2024-03-25T06:08:13;99019.00;;;7.20
24639;BMP180;1641;51.306;12.384;2024-03-25T06:11:03;99015.00;;;7.50
24639;BMP180;1641;51.306;12.384;2024-03-25T06:13:28;99021.00;;;7.40
24639;BMP180;1641;51.306;12.384;2024-03-25T06:15:53;99020.00;;;7.60
24639;BMP180;1641;51.306;12.384;2024-03-25T06:18:22;99022.00;;;7.80
24639;BMP180;1641;51.306;12.384;2024-03-25T06:20:47;99031.00;;;7.40
24639;BMP180;1641;51.306;12.384;2024-03-25T06:23:26;99036.00;;;7.50
24639;BMP180;1641;51.306;12.384;2024-03-25T06:25:56;99034.00;;;7.70
24639;BMP180;1641;51.306;12.384;2024-03-25T06:28:21;99019.00;;;7.70
24639;BMP180;1641;51.306;12.384;2024-03-25T06:30:59;99041.00;;;7.70
24639;BMP180;1641;51.306;12.384;2024-03-25T06:33:43;99040.00;;;7.50
24639;BMP180;1641;51.306;12.384;2024-03-25T06:36:27;99050.00;;;7.60
24639;BMP180;1641;51.306;12.384;2024-03-25T06:38:52;99059.00;;;7.90
24639;BMP180;1641;51.306;12.384;2024-03-25T06:41:17;99012.00;;;7.80
24639;BMP180;1641;51.306;12.384;2024-03-25T06:43:43;99028.00;;;7.60
24639;BMP180;1641;51.306;12.384;2024-03-25T06:46:09;99056.00;;;7.70
24639;BMP180;1641;51.306;12.384;2024-03-25T06:48:34;99059.00;;;8.20
24639;BMP180;1641;51.306;12.384;2024-03-25T06:51:00;99063.00;;;8.20
24639;BMP180;1641;51.306;12.384;2024-03-25T06:53:25;99061.00;;;8.90
24639;BMP180;1641;51.306;12.384;2024-03-25T06:55:55;99016.00;;;8.50
24639;BMP180;1641;51.306;12.384;2024-03-25T06:58:21;99068.00;;;8.50
24639;BMP180;1641;51.306;12.384;2024-03-25T07:00:47;99084.00;;;8.10
24639;BMP180;1641;51.306;12.384;2024-03-25T07:03:17;99032.00;;;8.60
24639;BMP180;1641;51.306;12.384;2024-03-25T07:05:51;99061.00;;;8.30
24639;BMP180;1641;51.306;12.384;2024-03-25T07:08:25;99069.00;;;7.90
24639;BMP180;1641;51.306;12.384;2024-03-25T07:10:50;99090.00;;;7.90
24639;BMP180;1641;51.306;12.384;2024-03-25T07:13:16;99071.00;;;7.90
24639;BMP180;1641;51.306;12.384;2024-03-25T07:15:42;99098.00;;;8.10
24639;BMP180;1641;51.306;12.384;2024-03-25T07:18:08;99085.00;;;8.40
24639;BMP180;1641;51.306;12.384;2024-03-25T07:20:43;99101.00;;;9.70
24639;BMP180;1641;51.306;12.384;2024-03-25T07:23:30;99105.00;;;10.00
24639;BMP180;1641;51.306;12.384;2024-03-25T07:26:05;99111.00;;;10.10
24639;BMP180;1641;51.306;12.384;2024-03-25T07:28:40;99024.00;;;9.10
24639;BMP180;1641;51.306;12.384;2024-03-25T07:31:06;99036.00;;;9.40
24639;BMP180;1641;51.306;12.384;2024-03-25T07:33:46;99111.00;;;10.10
24639;BMP180;1641;51.306;12.384;2024-03-25T07:36:17;99040.00;;;9.10
24639;BMP180;1641;51.306;12.384;2024-03-25T07:38:44;99108.00;;;8.50
24639;BMP180;1641;51.306;12.384;2024-03-25T07:41:09;99113.00;;;8.70
24639;BMP180;1641;51.306;12.384;2024-03-25T07:43:43;99112.00;;;9.20
24639;BMP180;1641;51.306;12.384;2024-03-25T07:46:09;99079.00;;;8.70
24639;BMP180;1641;51.306;12.384;2024-03-25T07:48:34;99118.00;;;9.30
24639;BMP180;1641;51.306;12.384;2024-03-25T07:51:05;99081.00;;;8.90
24639;BMP180;1641;51.306;12.384;2024-03-25T07:53:33;99107.00;;;8.80
24639;BMP180;1641;51.306;12.384;2024-03-25T07:55:58;99127.00;;;9.40
24639;BMP180;1641;51.306;12.384;2024-03-25T07:58:29;99112.00;;;9.40
24639;BMP180;1641;51.306;12.384;2024-03-25T08:00:55;99039.00;;;8.80
24639;BMP180;1641;51.306;12.384;2024-03-25T08:03:20;99134.00;;;8.80
24639;BMP180;1641;51.306;12.384;2024-03-25T08:05:45;99131.00;;;8.70
24639;BMP180;1641;51.306;12.384;2024-03-25T08:08:12;99140.00;;;9.20
24639;BMP180;1641;51.306;12.384;2024-03-25T08:10:38;99139.00;;;8.80
24639;BMP180;1641;51.306;12.384;2024-03-25T08:13:03;99130.00;;;9.50
24639;BMP180;1641;51.306;12.384;2024-03-25T08:15:28;99087.00;;;9.20
24639;BMP180;1641;51.306;12.384;2024-03-25T08:17:54;99112.00;;;9.40
24639;BMP180;1641;51.306;12.384;2024-03-25T08:20:19;99149.00;;;9.40
24639;BMP180;1641;51.306;12.384;2024-03-25T08:22:44;99146.00;;;10.10
24639;BMP180;1641;51.306;12.384;2024-03-25T08:25:11;99160.00;;;9.50
24639;BMP180;1641;51.306;12.384;2024-03-25T08:27:37;99161.00;;;10.30
24639;BMP180;1641;51.306;12.384;2024-03-25T08:30:02;99155.00;;;10.00
24639;BMP180;1641;51.306;12.384;2024-03-25T08:32:28;99165.00;;;9.90
24639;BMP180;1641;51.306;12.384;2024-03-25T08:34:55;99167.00;;;9.90
24639;BMP180;1641;51.306;12.384;2024-03-25T08:37:20;99182.00;;;9.90
24639;BMP180;1641;51.306;12.384;2024-03-25T08:39:45;99155.00;;;8.80
24639;BMP180;1641;51.306;12.384;2024-03-25T08:42:12;99152.00;;;8.80
24639;BMP180;1641;51.306;12.384;2024-03-25T08:44:37;99193.00;;;9.10
24639;BMP180;1641;51.306;12.384;2024-03-25T08:47:02;99188.00;;;8.90
24639;BMP180;1641;51.306;12.384;2024-03-25T08:49:28;99191.00;;;9.00
24639;BMP180;1641;51.306;12.384;2024-03-25T08:51:54;99190.00;;;9.70
24639;BMP180;1641;51.306;12.384;2024-03-25T08:54:27;99189.00;;;9.60
24639;BMP180;1641;51.306;12.384;2024-03-25T08:56:52;99146.00;;;10.60
24639;BMP180;1641;51.306;12.384;2024-03-25T08:59:17;99189.00;;;10.90
24639;BMP180;1641;51.306;12.384;2024-03-25T09:01:42;99192.00;;;12.10
24639;BMP180;1641;51.306;12.384;2024-03-25T09:04:08;99193.00;;;10.90
24639;BMP180;1641;51.306;12.384;2024-03-25T09:06:34;99188.00;;;11.30
24639;BMP180;1641;51.306;12.384;2024-03-25T09:08:59;99152.00;;;11.30
24639;BMP180;1641;51.306;12.384;2024-03-25T09:11:43;99125.00;;;11.20
24639;BMP180;1641;51.306;12.384;2024-03-25T09:14:08;99202.00;;;10.20
24639;BMP180;1641;51.306;12.384;2024-03-25T09:16:34;99194.00;;;10.40
24639;BMP180;1641;51.306;12.384;2024-03-25T09:18:59;99197.00;;;10.60
24639;BMP180;1641;51.306;12.384;2024-03-25T09:21:24;99157.00;;;10.00
24639;BMP180;1641;51.306;12.384;2024-03-25T09:23:52;99195.00;;;9.40
24639;BMP180;1641;51.306;12.384;2024-03-25T09:26:18;99201.00;;;9.20
24639;BMP180;1641;51.306;12.384;2024-03-25T09:28:43;99204.00;;;8.60
24639;BMP180;1641;51.306;12.384;2024-03-25T09:31:09;99206.00;;;8.30
24639;BMP180;1641;51.306;12.384;2024-03-25T09:33:34;99202.00;;;8.20
24639;BMP180;1641;51.306;12.384;2024-03-25T09:35:59;99218.00;;;8.00
24639;BMP180;1641;51.306;12.384;2024-03-25T09:38:25;99222.00;;;7.80
24639;BMP180;1641;51.306;12.384;2024-03-25T09:40:52;99212.00;;;7.90
24639;BMP180;1641;51.306;12.384;2024-03-25T09:43:27;99153.00;;;8.10
24639;BMP180;1641;51.306;12.384;2024-03-25T09:45:54;99209.00;;;8.10
24639;BMP180;1641;51.306;12.384;2024-03-25T09:48:21;99215.00;;;7.80
24639;BMP180;1641;51.306;12.384;2024-03-25T09:50:49;99172.00;;;7.90
24639;BMP180;1641;51.306;12.384;2024-03-25T09:53:14;99203.00;;;8.30
24639;BMP180;1641;51.306;12.384;2024-03-25T09:55:39;99172.00;;;8.80
24639;BMP180;1641;51.306;12.384;2024-03-25T09:58:05;99195.00;;;9.10
24639;BMP180;1641;51.306;12.384;2024-03-25T10:00:30;99184.00;;;9.70
24639;BMP180;1641;51.306;12.384;2024-03-25T10:02:56;99208.00;;;9.10
24639;BMP180;1641;51.306;12.384;2024-03-25T10:05:21;99180.00;;;8.70
24639;BMP180;1641;51.306;12.384;2024-03-25T10:07:49;99222.00;;;9.00
24639;BMP180;1641;51.306;12.384;2024-03-25T10:10:19;99212.00;;;9.50
24639;BMP180;1641;51.306;12.384;2024-03-25T10:12:45;99206.00;;;9.10
24639;BMP180;1641;51.306;12.384;2024-03-25T10:15:15;99182.00;;;9.20
24639;BMP180;1641;51.306;12.384;2024-03-25T10:17:40;99218.00;;;9.70
24639;BMP180;1641;51.306;12.384;2024-03-25T10:20:06;99211.00;;;10.30
24639;BMP180;1641;51.306;12.384;2024-03-25T10:22:41;99144.00;;;10.20
24639;BMP180;1641;51.306;12.384;2024-03-25T10:25:07;99209.00;;;9.90
24639;BMP180;1641;51.306;12.384;2024-03-25T10:27:33;99221.00;;;10.40
24639;BMP180;1641;51.306;12.384;2024-03-25T10:29:58;99143.00;;;10.50
24639;BMP180;1641;51.306;12.384;2024-03-25T10:32:23;99220.00;;;11.00
24639;BMP180;1641;51.306;12.384;2024-03-25T10:34:50;99182.00;;;10.90
24639;BMP180;1641;51.306;12.384;2024-03-25T10:37:15;99212.00;;;9.50
24639;BMP180;1641;51.306;12.384;2024-03-25T10:39:47;99219.00;;;9.50
24639;BMP180;1641;51.306;12.384;2024-03-25T10:42:14;99158.00;;;9.90
24639;BMP180;1641;51.306;12.384;2024-03-25T10:44:40;99216.00;;;9.60
24639;BMP180;1641;51.306;12.384;2024-03-25T10:47:06;99220.00;;;9.80
24639;BMP180;1641;51.306;12.384;2024-03-25T10:49:37;99221.00;;;9.80
24639;BMP180;1641;51.306;12.384;2024-03-25T10:52:05;99222.00;;;9.40
24639;BMP180;1641;51.306;12.384;2024-03-25T10:54:30;99201.00;;;9.30
24639;BMP180;1641;51.306;12.384;2024-03-25T10:56:57;99228.00;;;9.30
24639;BMP180;1641;51.306;12.384;2024-03-25T10:59:24;99182.00;;;9.40
24639;BMP180;1641;51.306;12.384;2024-03-25T11:01:49;99233.00;;;9.60
24639;BMP180;1641;51.306;12.384;2024-03-25T11:04:15;99222.00;;;9.40
24639;BMP180;1641;51.306;12.384;2024-03-25T11:06:43;99206.00;;;9.60
24639;BMP180;1641;51.306;12.384;2024-03-25T11:09:09;99185.00;;;10.00
24639;BMP180;1641;51.306;12.384;2024-03-25T11:11:34;99237.00;;;9.80
24639;BMP180;1641;51.306;12.384;2024-03-25T11:14:03;99176.00;;;10.20
24639;BMP180;1641;51.306;12.384;2024-03-25T11:16:30;99201.00;;;10.00
24639;BMP180;1641;51.306;12.384;2024-03-25T11:18:55;99180.00;;;10.40
24639;BMP180;1641;51.306;12.384;2024-03-25T11:21:26;99216.00;;;9.40
24639;BMP180;1641;51.306;12.384;2024-03-25T11:23:51;99234.00;;;8.80
24639;BMP180;1641;51.306;12.384;2024-03-25T11:26:26;99239.00;;;8.30
24639;BMP180;1641;51.306;12.384;2024-03-25T11:29:00;99252.00;;;8.40
24639;BMP180;1641;51.306;12.384;2024-03-25T11:31:26;99250.00;;;8.10
24639;BMP180;1641;51.306;12.384;2024-03-25T11:33:52;99231.00;;;8.40
24639;BMP180;1641;51.306;12.384;2024-03-25T11:36:18;99236.00;;;9.00
24639;BMP180;1641;51.306;12.384;2024-03-25T11:38:44;99233.00;;;8.70
24639;BMP180;1641;51.306;12.384;2024-03-25T11:41:12;99222.00;;;9.00
24639;BMP180;1641;51.306;12.384;2024-03-25T11:43:37;99195.00;;;9.10
24639;BMP180;1641;51.306;12.384;2024-03-25T11:46:03;99223.00;;;9.00
24639;BMP180;1641;51.306;12.384;2024-03-25T11:48:34;99217.00;;;9.10
24639;BMP180;1641;51.306;12.384;2024-03-25T11:51:00;99219.00;;;9.30
24639;BMP180;1641;51.306;12.384;2024-03-25T11:53:25;99215.00;;;9.50
24639;BMP180;1641;51.306;12.384;2024-03-25T11:55:51;99206.00;;;9.70
24639;BMP180;1641;51.306;12.384;2024-03-25T11:58:16;99147.00;;;9.90
24639;BMP180;1641;51.306;12.384;2024-03-25T12:00:44;99213.00;;;10.10
24639;BMP180;1641;51.306;12.384;2024-03-25T12:03:09;99215.00;;;9.90
24639;BMP180;1641;51.306;12.384;2024-03-25T12:05:36;99211.00;;;10.00
24639;BMP180;1641;51.306;12.384;2024-03-25T12:08:02;99220.00;;;10.20
24639;BMP180;1641;51.306;12.384;2024-03-25T12:10:27;99217.00;;;10.30
24639;BMP180;1641;51.306;12.384;2024-03-25T12:13:11;99214.00;;;9.60
24639;BMP180;1641;51.306;12.384;2024-03-25T12:15:36;99212.00;;;9.50
24639;BMP180;1641;51.306;12.384;2024-03-25T12:18:01;99212.00;;;9.70
24639;BMP180;1641;51.306;12.384;2024-03-25T12:20:27;99213.00;;;10.80
24639;BMP180;1641;51.306;12.384;2024-03-25T12:22:53;99211.00;;;10.80
24639;BMP180;1641;51.306;12.384;2024-03-25T12:25:19;99205.00;;;11.10
24639;BMP180;1641;51.306;12.384;2024-03-25T12:27:46;99214.00;;;11.80
24639;BMP180;1641;51.306;12.384;2024-03-25T12:30:11;99208.00;;;11.40
24639;BMP180;1641;51.306;12.384;2024-03-25T12:35:39;99187.00;;;11.30
24639;BMP180;1641;51.306;12.384;2024-03-25T12:37:55;99207.00;;;11.10
24639;BMP180;1641;51.306;12.384;2024-03-25T12:40:28;99203.00;;;10.70
24639;BMP180;1641;51.306;12.384;2024-03-25T12:42:53;99187.00;;;10.20
24639;BMP180;1641;51.306;12.384;2024-03-25T12:45:23;99172.00;;;10.40
24639;BMP180;1641;51.306;12.384;2024-03-25T12:47:48;99186.00;;;10.50
24639;BMP180;1641;51.306;12.384;2024-03-25T12:50:14;99189.00;;;10.30
24639;BMP180;1641;51.306;12.384;2024-03-25T12:52:39;99201.00;;;10.30
24639;BMP180;1641;51.306;12.384;2024-03-25T12:55:04;99188.00;;;10.80
24639;BMP180;1641;51.306;12.384;2024-03-25T12:57:29;99181.00;;;10.70
24639;BMP180;1641;51.306;12.384;2024-03-25T12:59:55;99143.00;;;10.90
24639;BMP180;1641;51.306;12.384;2024-03-25T13:02:20;99196.00;;;11.60
24639;BMP180;1641;51.306;12.384;2024-03-25T13:04:45;99200.00;;;11.50
24639;BMP180;1641;51.306;12.384;2024-03-25T13:07:11;99178.00;;;11.30
24639;BMP180;1641;51.306;12.384;2024-03-25T13:09:36;99178.00;;;10.90
24639;BMP180;1641;51.306;12.384;2024-03-25T13:12:02;99207.00;;;11.00
24639;BMP180;1641;51.306;12.384;2024-03-25T13:14:27;99197.00;;;11.40
24639;BMP180;1641;51.306;12.384;2024-03-25T13:16:52;99203.00;;;12.30
24639;BMP180;1641;51.306;12.384;2024-03-25T13:19:18;99196.00;;;12.30
24639;BMP180;1641;51.306;12.384;2024-03-25T13:21:43;99155.00;;;12.00
24639;BMP180;1641;51.306;12.384;2024-03-25T13:24:09;99148.00;;;12.10
24639;BMP180;1641;51.306;12.384;2024-03-25T13:26:34;99165.00;;;12.10
24639;BMP180;1641;51.306;12.384;2024-03-25T13:29:00;99185.00;;;12.20
24639;BMP180;1641;51.306;12.384;2024-03-25T13:31:26;99168.00;;;11.60
24639;BMP180;1641;51.306;12.384;2024-03-25T13:33:51;99165.00;;;11.60
24639;BMP180;1641;51.306;12.384;2024-03-25T13:36:17;99132.00;;;11.60
24639;BMP180;1641;51.306;12.384;2024-03-25T13:38:43;99116.00;;;12.00
24639;BMP180;1641;51.306;12.384;2024-03-25T13:41:11;99139.00;;;12.50
24639;BMP180;1641;51.306;12.384;2024-03-25T13:43:42;99180.00;;;12.40
24639;BMP180;1641;51.306;12.384;2024-03-25T13:46:08;99182.00;;;12.10
24639;BMP180;1641;51.306;12.384;2024-03-25T13:48:35;99127.00;;;11.60
24639;BMP180;1641;51.306;12.384;2024-03-25T13:51:04;99179.00;;;11.20
24639;BMP180;1641;51.306;12.384;2024-03-25T13:53:29;99118.00;;;11.80
24639;BMP180;1641;51.306;12.384;2024-03-25T13:55:54;99131.00;;;12.10
24639;BMP180;1641;51.306;12.384;2024-03-25T13:58:20;99157.00;;;11.90
24639;BMP180;1641;51.306;12.384;2024-03-25T14:00:45;99157.00;;;12.10
24639;BMP180;1641;51.306;12.384;2024-03-25T14:03:10;99181.00;;;11.80
24639;BMP180;1641;51.306;12.384;2024-03-25T14:05:35;99164.00;;;12.10
24639;BMP180;1641;51.306;12.384;2024-03-25T14:08:01;99137.00;;;12.80
24639;BMP180;1641;51.306;12.384;2024-03-25T14:10:27;99123.00;;;12.00
24639;BMP180;1641;51.306;12.384;2024-03-25T14:12:52;99165.00;;;12.30
24639;BMP180;1641;51.306;12.384;2024-03-25T14:15:17;99145.00;;;12.00
24639;BMP180;1641;51.306;12.384;2024-03-25T14:17:42;99158.00;;;11.70
24639;BMP180;1641;51.306;12.384;2024-03-25T14:20:09;99155.00;;;12.20